sensor_id;sensor_type;location;lat;lon;timestamp;P1;durP1;ratioP1;P2;durP2;ratioP2
44816;SDS011;30529;53.570;9.964;2023-03-14T00:01:07;5.40;;;2.10;;
44816;SDS011;30529;53.570;9.964;2023-03-14T00:03:34;6.40;;;2.30;;
44816;SDS011;30529;53.570;9.964;2023-03-14T00:06:04;4.90;;;1.90;;
44816;SDS011;30529;53.570;9.964;2023-03-14T00:08:31;8.30;;;2.10;;
44816;SDS011;30529;53.570;9.964;2023-03-14T00:10:57;8.43;;;2.70;;
44816;SDS011;30529;53.570;9.964;2023-03-14T00:13:23;6.07;;;2.10;;
44816;SDS011;30529;53.570;9.964;2023-03-14T00:15:50;5.93;;;2.10;;
44816;SDS011;30529;53.570;9.964;2023-03-14T00:18:15;5.50;;;2.37;;
44816;SDS011;30529;53.570;9.964;2023-03-14T00:20:41;5.37;;;2.10;;
44816;SDS011;30529;53.570;9.964;2023-03-14T00:23:07;9.87;;;2.60;;
44816;SDS011;30529;53.570;9.964;2023-03-14T00:25:34;7.93;;;3.03;;
44816;SDS011;30529;53.570;9.964;2023-03-14T00:28:00;5.67;;;2.13;;
44816;SDS011;30529;53.570;9.964;2023-03-14T00:30:26;4.83;;;2.20;;
44816;SDS011;30529;53.570;9.964;2023-03-14T00:32:52;5.90;;;1.80;;
44816;SDS011;30529;53.570;9.964;2023-03-14T00:35:18;6.60;;;3.23;;
44816;SDS011;30529;53.570;9.964;2023-03-14T00:37:44;6.53;;;2.43;;
44816;SDS011;30529;53.570;9.964;2023-03-14T00:40:11;5.37;;;2.10;;
44816;SDS011;30529;53.570;9.964;2023-03-14T00:42:38;5.77;;;1.80;;
44816;SDS011;30529;53.570;9.964;2023-03-14T00:45:09;8.40;;;2.50;;
44816;SDS011;30529;53.570;9.964;2023-03-14T00:47:36;4.37;;;1.50;;
44816;SDS011;30529;53.570;9.964;2023-03-14T00:50:02;6.73;;;2.33;;
44816;SDS011;30529;53.570;9.964;2023-03-14T00:52:28;7.10;;;2.33;;
44816;SDS011;30529;53.570;9.964;2023-03-14T00:54:54;8.73;;;2.93;;
44816;SDS011;30529;53.570;9.964;2023-03-14T00:57:20;6.53;;;2.30;;
44816;SDS011;30529;53.570;9.964;2023-03-14T00:59:46;9.63;;;2.50;;
44816;SDS011;30529;53.570;9.964;2023-03-14T01:02:12;6.57;;;2.23;;
44816;SDS011;30529;53.570;9.964;2023-03-14T01:04:38;7.60;;;2.30;;
44816;SDS011;30529;53.570;9.964;2023-03-14T01:07:04;8.10;;;2.53;;
44816;SDS011;30529;53.570;9.964;2023-03-14T01:09:30;7.73;;;2.30;;
44816;SDS011;30529;53.570;9.964;2023-03-14T01:11:56;8.03;;;1.87;;
44816;SDS011;30529;53.570;9.964;2023-03-14T01:14:22;8.33;;;2.60;;
44816;SDS011;30529;53.570;9.964;2023-03-14T01:16:48;4.93;;;2.00;;
44816;SDS011;30529;53.570;9.964;2023-03-14T01:19:14;7.63;;;2.53;;
44816;SDS011;30529;53.570;9.964;2023-03-14T01:21:40;7.93;;;2.30;;
44816;SDS011;30529;53.570;9.964;2023-03-14T01:24:06;6.33;;;1.93;;
44816;SDS011;30529;53.570;9.964;2023-03-14T01:26:33;6.53;;;2.17;;
44816;SDS011;30529;53.570;9.964;2023-03-14T01:29:00;4.97;;;1.83;;
44816;SDS011;30529;53.570;9.964;2023-03-14T01:31:26;7.27;;;2.67;;
44816;SDS011;30529;53.570;9.964;2023-03-14T01:33:52;5.80;;;1.90;;
44816;SDS011;30529;53.570;9.964;2023-03-14T01:36:19;8.20;;;2.10;;
44816;SDS011;30529;53.570;9.964;2023-03-14T01:38:45;9.80;;;3.13;;
44816;SDS011;30529;53.570;9.964;2023-03-14T01:41:18;7.80;;;2.80;;
44816;SDS011;30529;53.570;9.964;2023-03-14T01:43:46;5.63;;;2.20;;
44816;SDS011;30529;53.570;9.964;2023-03-14T01:46:17;8.23;;;2.07;;
44816;SDS011;30529;53.570;9.964;2023-03-14T01:51:21;11.47;;;2.10;;
44816;SDS011;30529;53.570;9.964;2023-03-14T01:53:57;4.97;;;2.03;;
44816;SDS011;30529;53.570;9.964;2023-03-14T01:56:29;5.17;;;2.20;;
44816;SDS011;30529;53.570;9.964;2023-03-14T01:58:57;5.33;;;2.63;;
44816;SDS011;30529;53.570;9.964;2023-03-14T02:01:25;4.87;;;2.00;;
44816;SDS011;30529;53.570;9.964;2023-03-14T02:03:53;4.40;;;2.03;;
44816;SDS011;30529;53.570;9.964;2023-03-14T02:06:23;8.50;;;2.47;;
44816;SDS011;30529;53.570;9.964;2023-03-14T02:08:53;4.33;;;2.17;;
44816;SDS011;30529;53.570;9.964;2023-03-14T02:11:20;5.53;;;2.57;;
44816;SDS011;30529;53.570;9.964;2023-03-14T02:13:52;5.87;;;2.20;;
44816;SDS011;30529;53.570;9.964;2023-03-14T02:16:18;6.87;;;2.30;;
44816;SDS011;30529;53.570;9.964;2023-03-14T02:18:44;6.70;;;2.90;;
44816;SDS011;30529;53.570;9.964;2023-03-14T02:21:24;8.60;;;2.40;;
44816;SDS011;30529;53.570;9.964;2023-03-14T02:27:11;6.10;;;2.20;;
44816;SDS011;30529;53.570;9.964;2023-03-14T02:32:27;6.67;;;2.30;;
44816;SDS011;30529;53.570;9.964;2023-03-14T02:34:57;10.23;;;2.63;;
44816;SDS011;30529;53.570;9.964;2023-03-14T02:37:26;7.60;;;2.70;;
44816;SDS011;30529;53.570;9.964;2023-03-14T02:40:02;7.53;;;2.10;;
44816;SDS011;30529;53.570;9.964;2023-03-14T02:42:30;4.63;;;2.70;;
44816;SDS011;30529;53.570;9.964;2023-03-14T02:47:34;8.40;;;2.30;;
44816;SDS011;30529;53.570;9.964;2023-03-14T02:50:11;7.43;;;2.40;;
44816;SDS011;30529;53.570;9.964;2023-03-14T02:52:39;5.00;;;2.23;;
44816;SDS011;30529;53.570;9.964;2023-03-14T02:55:06;7.43;;;2.80;;
44816;SDS011;30529;53.570;9.964;2023-03-14T02:57:32;7.13;;;2.83;;
44816;SDS011;30529;53.570;9.964;2023-03-14T02:59:59;5.87;;;2.33;;
44816;SDS011;30529;53.570;9.964;2023-03-14T03:02:26;6.67;;;2.37;;
44816;SDS011;30529;53.570;9.964;2023-03-14T03:04:53;7.40;;;2.43;;
44816;SDS011;30529;53.570;9.964;2023-03-14T03:07:19;5.20;;;2.37;;
44816;SDS011;30529;53.570;9.964;2023-03-14T03:09:46;5.83;;;2.20;;
44816;SDS011;30529;53.570;9.964;2023-03-14T03:12:12;7.10;;;2.73;;
44816;SDS011;30529;53.570;9.964;2023-03-14T03:14:38;2.73;;;2.00;;
44816;SDS011;30529;53.570;9.964;2023-03-14T03:17:04;9.33;;;2.83;;
44816;SDS011;30529;53.570;9.964;2023-03-14T03:19:31;5.87;;;2.20;;
44816;SDS011;30529;53.570;9.964;2023-03-14T03:21:57;7.53;;;2.80;;
44816;SDS011;30529;53.570;9.964;2023-03-14T03:24:24;4.43;;;2.47;;
44816;SDS011;30529;53.570;9.964;2023-03-14T03:26:50;5.53;;;2.33;;
44816;SDS011;30529;53.570;9.964;2023-03-14T03:29:16;5.17;;;2.13;;
44816;SDS011;30529;53.570;9.964;2023-03-14T03:31:42;10.40;;;2.50;;
44816;SDS011;30529;53.570;9.964;2023-03-14T03:34:11;4.67;;;2.23;;
44816;SDS011;30529;53.570;9.964;2023-03-14T03:36:38;5.67;;;2.40;;
44816;SDS011;30529;53.570;9.964;2023-03-14T03:39:04;6.80;;;2.33;;
44816;SDS011;30529;53.570;9.964;2023-03-14T03:41:30;5.03;;;2.20;;
44816;SDS011;30529;53.570;9.964;2023-03-14T03:43:56;9.50;;;2.93;;
44816;SDS011;30529;53.570;9.964;2023-03-14T03:46:22;5.23;;;2.37;;
44816;SDS011;30529;53.570;9.964;2023-03-14T03:48:49;6.57;;;2.30;;
44816;SDS011;30529;53.570;9.964;2023-03-14T03:51:22;5.00;;;2.30;;
44816;SDS011;30529;53.570;9.964;2023-03-14T03:53:50;5.47;;;2.07;;
44816;SDS011;30529;53.570;9.964;2023-03-14T03:56:16;8.57;;;2.83;;
44816;SDS011;30529;53.570;9.964;2023-03-14T03:58:42;6.60;;;2.87;;
44816;SDS011;30529;53.570;9.964;2023-03-14T04:01:09;4.60;;;1.73;;
44816;SDS011;30529;53.570;9.964;2023-03-14T04:03:36;5.20;;;2.27;;
44816;SDS011;30529;53.570;9.964;2023-03-14T04:06:05;6.47;;;1.90;;
44816;SDS011;30529;53.570;9.964;2023-03-14T04:08:33;4.60;;;2.10;;
44816;SDS011;30529;53.570;9.964;2023-03-14T04:10:59;7.13;;;2.13;;
44816;SDS011;30529;53.570;9.964;2023-03-14T04:13:26;4.57;;;2.30;;
44816;SDS011;30529;53.570;9.964;2023-03-14T04:15:53;6.13;;;2.10;;
44816;SDS011;30529;53.570;9.964;2023-03-14T04:18:20;8.10;;;2.77;;
44816;SDS011;30529;53.570;9.964;2023-03-14T04:20:53;4.10;;;2.30;;
44816;SDS011;30529;53.570;9.964;2023-03-14T04:23:21;6.60;;;2.30;;
44816;SDS011;30529;53.570;9.964;2023-03-14T04:25:50;7.43;;;2.53;;
44816;SDS011;30529;53.570;9.964;2023-03-14T04:28:17;6.20;;;2.37;;
44816;SDS011;30529;53.570;9.964;2023-03-14T04:30:43;6.27;;;2.70;;
44816;SDS011;30529;53.570;9.964;2023-03-14T04:33:09;13.83;;;3.57;;
44816;SDS011;30529;53.570;9.964;2023-03-14T04:35:37;8.07;;;2.60;;
44816;SDS011;30529;53.570;9.964;2023-03-14T04:38:03;7.90;;;3.07;;
44816;SDS011;30529;53.570;9.964;2023-03-14T04:40:30;6.23;;;2.03;;
44816;SDS011;30529;53.570;9.964;2023-03-14T04:42:56;7.90;;;2.60;;
44816;SDS011;30529;53.570;9.964;2023-03-14T04:45:22;6.77;;;2.37;;
44816;SDS011;30529;53.570;9.964;2023-03-14T04:47:48;7.83;;;3.00;;
44816;SDS011;30529;53.570;9.964;2023-03-14T04:50:14;6.67;;;2.70;;
44816;SDS011;30529;53.570;9.964;2023-03-14T04:52:40;13.60;;;3.40;;
44816;SDS011;30529;53.570;9.964;2023-03-14T04:55:06;10.07;;;3.17;;
44816;SDS011;30529;53.570;9.964;2023-03-14T04:57:32;13.47;;;2.93;;
44816;SDS011;30529;53.570;9.964;2023-03-14T04:59:58;5.77;;;2.63;;
44816;SDS011;30529;53.570;9.964;2023-03-14T05:02:24;7.43;;;2.33;;
44816;SDS011;30529;53.570;9.964;2023-03-14T05:04:50;6.80;;;2.60;;
44816;SDS011;30529;53.570;9.964;2023-03-14T05:07:16;7.40;;;2.97;;
44816;SDS011;30529;53.570;9.964;2023-03-14T05:09:42;7.47;;;2.50;;
44816;SDS011;30529;53.570;9.964;2023-03-14T05:12:08;5.47;;;2.50;;
44816;SDS011;30529;53.570;9.964;2023-03-14T05:14:34;6.13;;;1.83;;
44816;SDS011;30529;53.570;9.964;2023-03-14T05:17:00;7.97;;;2.93;;
44816;SDS011;30529;53.570;9.964;2023-03-14T05:19:26;4.50;;;1.90;;
44816;SDS011;30529;53.570;9.964;2023-03-14T05:21:52;7.33;;;2.10;;
44816;SDS011;30529;53.570;9.964;2023-03-14T05:24:18;7.20;;;2.90;;
44816;SDS011;30529;53.570;9.964;2023-03-14T05:26:44;3.93;;;2.30;;
44816;SDS011;30529;53.570;9.964;2023-03-14T05:29:10;7.73;;;2.30;;
44816;SDS011;30529;53.570;9.964;2023-03-14T05:31:36;4.27;;;2.30;;
44816;SDS011;30529;53.570;9.964;2023-03-14T05:34:02;3.40;;;1.60;;
44816;SDS011;30529;53.570;9.964;2023-03-14T05:36:28;6.93;;;1.93;;
44816;SDS011;30529;53.570;9.964;2023-03-14T05:38:54;5.73;;;1.90;;
44816;SDS011;30529;53.570;9.964;2023-03-14T05:41:20;7.77;;;2.60;;
44816;SDS011;30529;53.570;9.964;2023-03-14T05:43:46;6.60;;;3.00;;
44816;SDS011;30529;53.570;9.964;2023-03-14T05:46:12;5.80;;;2.40;;
44816;SDS011;30529;53.570;9.964;2023-03-14T05:48:39;8.30;;;2.60;;
44816;SDS011;30529;53.570;9.964;2023-03-14T05:51:05;6.03;;;2.00;;
44816;SDS011;30529;53.570;9.964;2023-03-14T05:53:32;9.00;;;3.13;;
44816;SDS011;30529;53.570;9.964;2023-03-14T05:55:58;6.10;;;2.90;;
44816;SDS011;30529;53.570;9.964;2023-03-14T05:58:24;8.00;;;3.70;;
44816;SDS011;30529;53.570;9.964;2023-03-14T06:00:50;6.67;;;3.57;;
44816;SDS011;30529;53.570;9.964;2023-03-14T06:03:16;9.40;;;3.17;;
44816;SDS011;30529;53.570;9.964;2023-03-14T06:05:42;9.63;;;3.90;;
44816;SDS011;30529;53.570;9.964;2023-03-14T06:08:08;6.40;;;2.97;;
44816;SDS011;30529;53.570;9.964;2023-03-14T06:10:34;7.20;;;3.50;;
44816;SDS011;30529;53.570;9.964;2023-03-14T06:13:01;9.73;;;4.10;;
44816;SDS011;30529;53.570;9.964;2023-03-14T06:15:27;10.30;;;4.13;;
44816;SDS011;30529;53.570;9.964;2023-03-14T06:17:54;11.87;;;4.00;;
44816;SDS011;30529;53.570;9.964;2023-03-14T06:20:21;8.13;;;3.53;;
44816;SDS011;30529;53.570;9.964;2023-03-14T06:22:47;13.00;;;4.07;;
44816;SDS011;30529;53.570;9.964;2023-03-14T06:25:13;7.93;;;3.03;;
44816;SDS011;30529;53.570;9.964;2023-03-14T06:27:40;7.10;;;2.73;;
44816;SDS011;30529;53.570;9.964;2023-03-14T06:30:07;7.63;;;2.90;;
44816;SDS011;30529;53.570;9.964;2023-03-14T06:32:34;8.93;;;3.30;;
44816;SDS011;30529;53.570;9.964;2023-03-14T06:35:00;9.67;;;3.60;;
44816;SDS011;30529;53.570;9.964;2023-03-14T06:37:27;7.30;;;3.17;;
44816;SDS011;30529;53.570;9.964;2023-03-14T06:39:54;16.77;;;8.80;;
44816;SDS011;30529;53.570;9.964;2023-03-14T06:42:20;7.83;;;3.50;;
44816;SDS011;30529;53.570;9.964;2023-03-14T06:44:46;9.17;;;3.10;;
44816;SDS011;30529;53.570;9.964;2023-03-14T06:47:12;7.00;;;3.27;;
44816;SDS011;30529;53.570;9.964;2023-03-14T06:49:38;7.27;;;3.00;;
44816;SDS011;30529;53.570;9.964;2023-03-14T06:52:04;10.00;;;3.33;;
44816;SDS011;30529;53.570;9.964;2023-03-14T06:54:30;7.70;;;2.63;;
44816;SDS011;30529;53.570;9.964;2023-03-14T06:56:57;9.30;;;3.53;;
44816;SDS011;30529;53.570;9.964;2023-03-14T06:59:23;6.83;;;2.93;;
44816;SDS011;30529;53.570;9.964;2023-03-14T07:01:49;15.17;;;2.87;;
44816;SDS011;30529;53.570;9.964;2023-03-14T07:04:16;8.17;;;2.43;;
44816;SDS011;30529;53.570;9.964;2023-03-14T07:06:43;7.37;;;2.90;;
44816;SDS011;30529;53.570;9.964;2023-03-14T07:09:13;8.40;;;2.33;;
44816;SDS011;30529;53.570;9.964;2023-03-14T07:11:39;7.27;;;2.03;;
44816;SDS011;30529;53.570;9.964;2023-03-14T07:14:05;7.20;;;2.43;;
44816;SDS011;30529;53.570;9.964;2023-03-14T07:16:31;5.23;;;1.60;;
44816;SDS011;30529;53.570;9.964;2023-03-14T07:18:59;7.87;;;1.80;;
44816;SDS011;30529;53.570;9.964;2023-03-14T07:21:25;4.80;;;1.80;;
44816;SDS011;30529;53.570;9.964;2023-03-14T07:23:51;9.33;;;2.17;;
44816;SDS011;30529;53.570;9.964;2023-03-14T07:26:17;7.90;;;2.10;;
44816;SDS011;30529;53.570;9.964;2023-03-14T07:28:44;5.43;;;1.60;;
44816;SDS011;30529;53.570;9.964;2023-03-14T07:31:10;8.80;;;1.90;;
44816;SDS011;30529;53.570;9.964;2023-03-14T07:33:36;8.73;;;4.03;;
44816;SDS011;30529;53.570;9.964;2023-03-14T07:36:02;7.43;;;3.23;;
44816;SDS011;30529;53.570;9.964;2023-03-14T07:38:29;7.67;;;2.90;;
44816;SDS011;30529;53.570;9.964;2023-03-14T07:41:03;5.30;;;2.43;;
44816;SDS011;30529;53.570;9.964;2023-03-14T07:43:30;4.43;;;2.30;;
44816;SDS011;30529;53.570;9.964;2023-03-14T07:45:57;7.13;;;2.47;;
44816;SDS011;30529;53.570;9.964;2023-03-14T07:48:24;5.40;;;2.20;;
44816;SDS011;30529;53.570;9.964;2023-03-14T07:50:52;7.00;;;1.77;;
44816;SDS011;30529;53.570;9.964;2023-03-14T07:53:19;8.70;;;2.30;;
44816;SDS011;30529;53.570;9.964;2023-03-14T07:55:46;4.27;;;1.67;;
44816;SDS011;30529;53.570;9.964;2023-03-14T07:58:13;6.50;;;1.87;;
44816;SDS011;30529;53.570;9.964;2023-03-14T08:00:39;9.37;;;2.07;;
44816;SDS011;30529;53.570;9.964;2023-03-14T08:03:06;4.83;;;1.30;;
44816;SDS011;30529;53.570;9.964;2023-03-14T08:05:35;6.40;;;2.43;;
44816;SDS011;30529;53.570;9.964;2023-03-14T08:08:02;5.60;;;2.30;;
44816;SDS011;30529;53.570;9.964;2023-03-14T08:10:29;6.27;;;2.00;;
44816;SDS011;30529;53.570;9.964;2023-03-14T08:12:56;2.67;;;1.33;;
44816;SDS011;30529;53.570;9.964;2023-03-14T08:15:25;5.13;;;1.70;;
44816;SDS011;30529;53.570;9.964;2023-03-14T08:17:53;7.40;;;1.50;;
44816;SDS011;30529;53.570;9.964;2023-03-14T08:20:21;3.07;;;1.20;;
44816;SDS011;30529;53.570;9.964;2023-03-14T08:22:48;3.57;;;1.17;;
44816;SDS011;30529;53.570;9.964;2023-03-14T08:25:14;2.93;;;1.50;;
44816;SDS011;30529;53.570;9.964;2023-03-14T08:27:41;7.43;;;2.63;;
44816;SDS011;30529;53.570;9.964;2023-03-14T08:30:09;3.77;;;1.40;;
44816;SDS011;30529;53.570;9.964;2023-03-14T08:32:37;4.33;;;1.67;;
44816;SDS011;30529;53.570;9.964;2023-03-14T08:35:03;3.80;;;1.57;;
44816;SDS011;30529;53.570;9.964;2023-03-14T08:37:31;5.67;;;1.77;;
44816;SDS011;30529;53.570;9.964;2023-03-14T08:39:58;2.33;;;1.30;;
44816;SDS011;30529;53.570;9.964;2023-03-14T08:42:24;2.97;;;1.60;;
44816;SDS011;30529;53.570;9.964;2023-03-14T08:44:50;5.23;;;1.40;;
44816;SDS011;30529;53.570;9.964;2023-03-14T08:47:17;7.90;;;2.20;;
44816;SDS011;30529;53.570;9.964;2023-03-14T08:49:43;4.80;;;1.93;;
44816;SDS011;30529;53.570;9.964;2023-03-14T08:52:09;4.77;;;1.77;;
44816;SDS011;30529;53.570;9.964;2023-03-14T08:54:35;5.50;;;2.23;;
44816;SDS011;30529;53.570;9.964;2023-03-14T08:57:01;7.50;;;2.93;;
44816;SDS011;30529;53.570;9.964;2023-03-14T08:59:27;7.67;;;2.00;;
44816;SDS011;30529;53.570;9.964;2023-03-14T09:01:53;5.73;;;2.30;;
44816;SDS011;30529;53.570;9.964;2023-03-14T09:04:20;6.73;;;1.97;;
44816;SDS011;30529;53.570;9.964;2023-03-14T09:06:47;6.87;;;2.40;;
44816;SDS011;30529;53.570;9.964;2023-03-14T09:09:13;7.50;;;2.60;;
44816;SDS011;30529;53.570;9.964;2023-03-14T09:11:39;5.47;;;2.17;;
44816;SDS011;30529;53.570;9.964;2023-03-14T09:14:05;5.93;;;2.43;;
44816;SDS011;30529;53.570;9.964;2023-03-14T09:16:33;9.33;;;2.50;;
44816;SDS011;30529;53.570;9.964;2023-03-14T09:18:59;10.53;;;2.77;;
44816;SDS011;30529;53.570;9.964;2023-03-14T09:21:25;8.83;;;2.60;;
44816;SDS011;30529;53.570;9.964;2023-03-14T09:23:52;5.57;;;2.67;;
44816;SDS011;30529;53.570;9.964;2023-03-14T09:26:19;5.93;;;2.53;;
44816;SDS011;30529;53.570;9.964;2023-03-14T09:28:45;9.53;;;2.80;;
44816;SDS011;30529;53.570;9.964;2023-03-14T09:31:11;6.20;;;2.60;;
44816;SDS011;30529;53.570;9.964;2023-03-14T09:33:38;9.10;;;3.30;;
44816;SDS011;30529;53.570;9.964;2023-03-14T09:36:04;7.03;;;2.50;;
44816;SDS011;30529;53.570;9.964;2023-03-14T09:38:31;7.03;;;3.00;;
44816;SDS011;30529;53.570;9.964;2023-03-14T09:40:59;7.93;;;2.40;;
44816;SDS011;30529;53.570;9.964;2023-03-14T09:43:28;10.60;;;2.93;;
44816;SDS011;30529;53.570;9.964;2023-03-14T09:45:57;10.20;;;2.47;;
44816;SDS011;30529;53.570;9.964;2023-03-14T09:48:27;5.73;;;2.50;;
44816;SDS011;30529;53.570;9.964;2023-03-14T09:50:58;9.00;;;2.80;;
44816;SDS011;30529;53.570;9.964;2023-03-14T09:53:34;6.73;;;2.80;;
44816;SDS011;30529;53.570;9.964;2023-03-14T09:56:19;2.93;;;1.10;;
44816;SDS011;30529;53.570;9.964;2023-03-14T09:58:50;2.77;;;1.07;;
44816;SDS011;30529;53.570;9.964;2023-03-14T10:01:21;1.03;;;0.50;;
44816;SDS011;30529;53.570;9.964;2023-03-14T10:03:54;2.83;;;0.70;;
44816;SDS011;30529;53.570;9.964;2023-03-14T10:06:22;2.40;;;0.80;;
44816;SDS011;30529;53.570;9.964;2023-03-14T10:08:51;3.07;;;0.90;;
44816;SDS011;30529;53.570;9.964;2023-03-14T10:11:18;2.17;;;0.70;;
44816;SDS011;30529;53.570;9.964;2023-03-14T10:14:05;2.37;;;0.90;;
44816;SDS011;30529;53.570;9.964;2023-03-14T10:16:41;2.10;;;0.80;;
44816;SDS011;30529;53.570;9.964;2023-03-14T10:19:14;4.23;;;1.10;;
44816;SDS011;30529;53.570;9.964;2023-03-14T10:21:50;2.33;;;1.10;;
44816;SDS011;30529;53.570;9.964;2023-03-14T10:24:26;5.93;;;1.20;;
44816;SDS011;30529;53.570;9.964;2023-03-14T10:26:57;1.13;;;0.57;;
44816;SDS011;30529;53.570;9.964;2023-03-14T10:29:30;2.30;;;0.60;;
44816;SDS011;30529;53.570;9.964;2023-03-14T10:32:01;1.37;;;0.60;;
44816;SDS011;30529;53.570;9.964;2023-03-14T10:34:34;2.13;;;0.70;;
44816;SDS011;30529;53.570;9.964;2023-03-14T10:37:17;0.73;;;0.40;;
44816;SDS011;30529;53.570;9.964;2023-03-14T10:39:48;0.97;;;0.50;;
44816;SDS011;30529;53.570;9.964;2023-03-14T10:44:45;1.37;;;0.50;;
44816;SDS011;30529;53.570;9.964;2023-03-14T10:47:19;0.50;;;0.47;;
44816;SDS011;30529;53.570;9.964;2023-03-14T10:49:48;0.63;;;0.50;;
44816;SDS011;30529;53.570;9.964;2023-03-14T10:52:17;1.27;;;0.53;;
44816;SDS011;30529;53.570;9.964;2023-03-14T10:54:54;0.83;;;0.50;;
44816;SDS011;30529;53.570;9.964;2023-03-14T10:57:23;1.50;;;0.60;;
44816;SDS011;30529;53.570;9.964;2023-03-14T10:59:50;0.53;;;0.43;;
44816;SDS011;30529;53.570;9.964;2023-03-14T11:08:02;0.50;;;0.40;;
44816;SDS011;30529;53.570;9.964;2023-03-14T11:10:35;1.47;;;0.70;;
44816;SDS011;30529;53.570;9.964;2023-03-14T11:18:28;2.00;;;0.67;;
44816;SDS011;30529;53.570;9.964;2023-03-14T11:21:13;2.77;;;0.60;;
44816;SDS011;30529;53.570;9.964;2023-03-14T11:24:02;2.93;;;0.67;;
44816;SDS011;30529;53.570;9.964;2023-03-14T11:29:19;1.43;;;0.50;;
44816;SDS011;30529;53.570;9.964;2023-03-14T11:31:50;1.20;;;0.73;;
44816;SDS011;30529;53.570;9.964;2023-03-14T11:34:36;2.17;;;0.70;;
44816;SDS011;30529;53.570;9.964;2023-03-14T11:37:22;2.80;;;0.77;;
44816;SDS011;30529;53.570;9.964;2023-03-14T11:39:59;2.93;;;0.60;;
44816;SDS011;30529;53.570;9.964;2023-03-14T11:42:44;5.03;;;1.13;;
44816;SDS011;30529;53.570;9.964;2023-03-14T11:45:18;3.27;;;0.80;;
44816;SDS011;30529;53.570;9.964;2023-03-14T11:47:57;1.57;;;0.90;;
44816;SDS011;30529;53.570;9.964;2023-03-14T11:50:48;4.23;;;0.80;;
44816;SDS011;30529;53.570;9.964;2023-03-14T11:53:19;3.67;;;0.93;;
44816;SDS011;30529;53.570;9.964;2023-03-14T11:55:59;2.13;;;1.00;;
44816;SDS011;30529;53.570;9.964;2023-03-14T11:58:26;3.10;;;1.00;;
44816;SDS011;30529;53.570;9.964;2023-03-14T12:00:56;3.60;;;1.10;;
44816;SDS011;30529;53.570;9.964;2023-03-14T12:03:29;3.90;;;1.03;;
44816;SDS011;30529;53.570;9.964;2023-03-14T12:08:55;4.53;;;0.90;;
44816;SDS011;30529;53.570;9.964;2023-03-14T12:14:23;4.50;;;1.03;;
44816;SDS011;30529;53.570;9.964;2023-03-14T12:16:54;6.07;;;1.20;;
44816;SDS011;30529;53.570;9.964;2023-03-14T12:21:53;4.27;;;1.00;;
44816;SDS011;30529;53.570;9.964;2023-03-14T12:24:24;8.03;;;1.90;;
44816;SDS011;30529;53.570;9.964;2023-03-14T12:26:56;5.07;;;1.10;;
44816;SDS011;30529;53.570;9.964;2023-03-14T12:29:27;6.33;;;1.90;;
44816;SDS011;30529;53.570;9.964;2023-03-14T12:34:38;6.57;;;2.27;;
44816;SDS011;30529;53.570;9.964;2023-03-14T12:42:51;4.00;;;1.20;;
44816;SDS011;30529;53.570;9.964;2023-03-14T12:45:33;5.70;;;1.73;;
44816;SDS011;30529;53.570;9.964;2023-03-14T12:48:03;6.40;;;1.50;;
44816;SDS011;30529;53.570;9.964;2023-03-14T12:50:36;7.63;;;2.10;;
44816;SDS011;30529;53.570;9.964;2023-03-14T12:53:16;7.57;;;1.93;;
44816;SDS011;30529;53.570;9.964;2023-03-14T12:58:58;9.00;;;1.70;;
44816;SDS011;30529;53.570;9.964;2023-03-14T13:01:43;6.77;;;2.40;;
44816;SDS011;30529;53.570;9.964;2023-03-14T13:04:12;9.93;;;2.17;;
44816;SDS011;30529;53.570;9.964;2023-03-14T13:06:55;7.07;;;2.20;;
44816;SDS011;30529;53.570;9.964;2023-03-14T13:11:55;10.27;;;2.10;;
44816;SDS011;30529;53.570;9.964;2023-03-14T13:14:27;13.40;;;2.70;;
44816;SDS011;30529;53.570;9.964;2023-03-14T13:16:59;7.33;;;2.10;;
44816;SDS011;30529;53.570;9.964;2023-03-14T13:19:26;8.40;;;1.50;;
44816;SDS011;30529;53.570;9.964;2023-03-14T13:22:05;13.80;;;2.87;;
44816;SDS011;30529;53.570;9.964;2023-03-14T13:24:47;11.77;;;2.10;;
44816;SDS011;30529;53.570;9.964;2023-03-14T13:27:16;7.67;;;1.70;;
44816;SDS011;30529;53.570;9.964;2023-03-14T13:29:48;10.97;;;1.93;;
44816;SDS011;30529;53.570;9.964;2023-03-14T13:32:39;10.80;;;1.70;;
44816;SDS011;30529;53.570;9.964;2023-03-14T13:35:14;8.07;;;1.27;;
44816;SDS011;30529;53.570;9.964;2023-03-14T13:37:44;6.13;;;1.43;;
44816;SDS011;30529;53.570;9.964;2023-03-14T13:40:23;9.70;;;2.50;;
44816;SDS011;30529;53.570;9.964;2023-03-14T13:42:59;7.37;;;1.20;;
44816;SDS011;30529;53.570;9.964;2023-03-14T13:45:28;10.07;;;2.33;;
44816;SDS011;30529;53.570;9.964;2023-03-14T13:47:54;5.17;;;1.97;;
44816;SDS011;30529;53.570;9.964;2023-03-14T13:50:20;17.43;;;2.33;;
44816;SDS011;30529;53.570;9.964;2023-03-14T13:52:46;6.37;;;1.47;;
44816;SDS011;30529;53.570;9.964;2023-03-14T13:55:17;6.90;;;1.63;;
44816;SDS011;30529;53.570;9.964;2023-03-14T14:00:32;9.33;;;2.10;;
44816;SDS011;30529;53.570;9.964;2023-03-14T14:02:58;8.37;;;1.63;;
44816;SDS011;30529;53.570;9.964;2023-03-14T14:05:26;8.30;;;1.70;;
44816;SDS011;30529;53.570;9.964;2023-03-14T14:07:53;7.63;;;1.53;;
44816;SDS011;30529;53.570;9.964;2023-03-14T14:10:19;6.80;;;1.97;;
44816;SDS011;30529;53.570;9.964;2023-03-14T14:12:47;14.03;;;3.43;;
44816;SDS011;30529;53.570;9.964;2023-03-14T14:17:48;5.70;;;1.87;;
44816;SDS011;30529;53.570;9.964;2023-03-14T14:20:28;6.07;;;1.53;;
44816;SDS011;30529;53.570;9.964;2023-03-14T14:23:21;7.07;;;1.43;;
44816;SDS011;30529;53.570;9.964;2023-03-14T14:25:51;7.47;;;2.00;;
44816;SDS011;30529;53.570;9.964;2023-03-14T14:31:03;7.97;;;1.83;;
44816;SDS011;30529;53.570;9.964;2023-03-14T14:33:58;4.13;;;1.47;;
44816;SDS011;30529;53.570;9.964;2023-03-14T14:36:36;7.43;;;1.90;;
44816;SDS011;30529;53.570;9.964;2023-03-14T14:39:18;6.93;;;1.40;;
44816;SDS011;30529;53.570;9.964;2023-03-14T14:41:54;7.77;;;1.90;;
44816;SDS011;30529;53.570;9.964;2023-03-14T14:44:30;12.30;;;1.83;;
44816;SDS011;30529;53.570;9.964;2023-03-14T14:47:01;7.63;;;1.47;;
44816;SDS011;30529;53.570;9.964;2023-03-14T14:49:32;8.13;;;1.80;;
44816;SDS011;30529;53.570;9.964;2023-03-14T14:52:00;4.63;;;1.30;;
44816;SDS011;30529;53.570;9.964;2023-03-14T14:54:40;6.30;;;1.23;;
44816;SDS011;30529;53.570;9.964;2023-03-14T14:57:18;7.90;;;1.00;;
44816;SDS011;30529;53.570;9.964;2023-03-14T14:59:48;5.13;;;1.20;;
44816;SDS011;30529;53.570;9.964;2023-03-14T15:02:31;7.43;;;1.83;;
44816;SDS011;30529;53.570;9.964;2023-03-14T15:04:57;4.93;;;1.80;;
44816;SDS011;30529;53.570;9.964;2023-03-14T15:07:24;8.77;;;1.53;;
44816;SDS011;30529;53.570;9.964;2023-03-14T15:09:50;4.60;;;1.50;;
44816;SDS011;30529;53.570;9.964;2023-03-14T15:12:16;8.03;;;1.53;;
44816;SDS011;30529;53.570;9.964;2023-03-14T15:14:42;10.17;;;2.20;;
44816;SDS011;30529;53.570;9.964;2023-03-14T15:17:10;6.30;;;1.70;;
44816;SDS011;30529;53.570;9.964;2023-03-14T15:19:38;7.67;;;1.97;;
44816;SDS011;30529;53.570;9.964;2023-03-14T15:22:05;9.97;;;1.50;;
44816;SDS011;30529;53.570;9.964;2023-03-14T15:24:37;10.17;;;1.60;;
44816;SDS011;30529;53.570;9.964;2023-03-14T15:27:03;10.27;;;1.83;;
44816;SDS011;30529;53.570;9.964;2023-03-14T15:29:35;8.63;;;2.23;;
44816;SDS011;30529;53.570;9.964;2023-03-14T15:32:02;8.10;;;2.07;;
44816;SDS011;30529;53.570;9.964;2023-03-14T15:34:28;7.70;;;2.10;;
44816;SDS011;30529;53.570;9.964;2023-03-14T15:36:54;6.60;;;1.73;;
44816;SDS011;30529;53.570;9.964;2023-03-14T15:39:20;10.40;;;1.90;;
44816;SDS011;30529;53.570;9.964;2023-03-14T15:41:46;12.90;;;2.37;;
44816;SDS011;30529;53.570;9.964;2023-03-14T15:44:12;12.03;;;1.80;;
44816;SDS011;30529;53.570;9.964;2023-03-14T15:46:39;12.03;;;1.87;;
44816;SDS011;30529;53.570;9.964;2023-03-14T15:49:04;7.27;;;1.80;;
44816;SDS011;30529;53.570;9.964;2023-03-14T15:51:30;8.37;;;1.40;;
44816;SDS011;30529;53.570;9.964;2023-03-14T15:53:57;7.77;;;1.47;;